createdAt,value
2023-03-02T00:02:18.164Z,3.15
2023-03-02T00:04:50.682Z,3.18
2023-03-02T00:07:22.958Z,3.24
2023-03-02T00:09:49.768Z,3.22
2023-03-02T00:12:16.397Z,3.19
2023-03-02T00:14:43.439Z,3.16
2023-03-02T00:17:10.749Z,3.18
2023-03-02T00:19:37.719Z,3.24
2023-03-02T00:22:04.736Z,3.22
2023-03-02T00:24:31.433Z,3.23
2023-03-02T00:26:58.154Z,3.21
2023-03-02T00:29:24.933Z,3.24
2023-03-02T00:31:51.694Z,3.22
2023-03-02T00:34:18.452Z,3.25
2023-03-02T00:36:45.089Z,3.27
2023-03-02T00:39:11.695Z,3.28
2023-03-02T00:41:38.439Z,3.27
2023-03-02T00:44:05.113Z,3.28
2023-03-02T00:46:32.093Z,3.26
2023-03-02T00:48:58.941Z,3.26
2023-03-02T00:51:25.697Z,3.33
2023-03-02T00:53:52.384Z,3.33
2023-03-02T00:56:19.194Z,3.31
2023-03-02T00:58:45.832Z,3.28
2023-03-02T01:01:13.084Z,3.25
2023-03-02T01:03:39.733Z,3.21
2023-03-02T01:06:13.635Z,3.15
2023-03-02T01:08:40.242Z,3.15
2023-03-02T01:11:13.684Z,3.13
2023-03-02T01:13:40.434Z,3.11
2023-03-02T01:16:07.519Z,3.11
2023-03-02T01:18:34.965Z,3.09
2023-03-02T01:21:06.026Z,3.07
2023-03-02T01:23:32.945Z,3.08
2023-03-02T01:25:59.654Z,3.04
2023-03-02T01:28:26.584Z,3.02
2023-03-02T01:30:54.357Z,2.99
2023-03-02T01:33:21.624Z,2.97
2023-03-02T01:35:48.582Z,2.93
2023-03-02T01:38:15.421Z,2.89
2023-03-02T01:40:42.011Z,2.83
2023-03-02T01:43:14.965Z,2.78
2023-03-02T01:45:59.500Z,2.74
2023-03-02T01:48:31.611Z,2.71
2023-03-02T01:50:59.067Z,2.71
2023-03-02T01:53:29.500Z,2.66
2023-03-02T01:55:57.653Z,2.62
2023-03-02T01:58:25.596Z,2.60
2023-03-02T02:00:54.776Z,2.57
2023-03-02T02:03:24.952Z,2.56
2023-03-02T02:06:17.977Z,2.58
2023-03-02T02:08:46.535Z,2.52
2023-03-02T02:11:13.559Z,2.48
2023-03-02T02:13:40.410Z,2.45
2023-03-02T02:16:07.909Z,2.40
2023-03-02T02:18:38.546Z,2.40
2023-03-02T02:21:06.533Z,2.36
2023-03-02T02:23:39.862Z,2.32
2023-03-02T02:26:20.666Z,2.22
2023-03-02T02:29:00.542Z,2.15
2023-03-02T02:31:42.338Z,2.07
2023-03-02T02:34:28.840Z,1.98
2023-03-02T02:37:01.039Z,1.90
2023-03-02T02:39:31.884Z,1.87
2023-03-02T02:42:07.078Z,1.87
2023-03-02T02:44:33.960Z,1.85
2023-03-02T02:47:00.748Z,1.82
2023-03-02T02:49:35.784Z,1.80
2023-03-02T02:52:05.409Z,1.76
2023-03-02T02:54:34.122Z,1.76
2023-03-02T02:57:03.237Z,1.76
2023-03-02T02:59:34.098Z,1.76
2023-03-02T03:02:01.275Z,1.75
2023-03-02T03:04:31.136Z,1.76
2023-03-02T03:06:59.107Z,1.75
2023-03-02T03:09:26.770Z,1.77
2023-03-02T03:11:56.750Z,1.78
2023-03-02T03:14:35.175Z,1.77
2023-03-02T03:17:02.336Z,1.77
2023-03-02T03:19:32.421Z,1.74
2023-03-02T03:22:01.419Z,1.76
2023-03-02T03:24:29.936Z,1.79
2023-03-02T03:26:57.396Z,1.77
2023-03-02T03:29:26.536Z,1.77
2023-03-02T03:31:55.220Z,1.79
2023-03-02T03:34:22.440Z,1.74
2023-03-02T03:36:49.145Z,1.77
2023-03-02T03:39:18.345Z,1.78
2023-03-02T03:41:45.168Z,1.73
2023-03-02T03:44:12.574Z,1.69
2023-03-02T03:46:39.660Z,1.64
2023-03-02T03:49:06.375Z,1.65
2023-03-02T03:51:35.435Z,1.60
2023-03-02T03:54:08.358Z,1.57
2023-03-02T03:56:38.507Z,1.55
2023-03-02T03:59:08.026Z,1.51
2023-03-02T04:01:39.986Z,1.47
2023-03-02T04:04:09.829Z,1.46
2023-03-02T04:06:36.945Z,1.43
2023-03-02T04:09:05.165Z,1.46
2023-03-02T04:11:35.186Z,1.42
2023-03-02T04:14:02.287Z,1.41
2023-03-02T04:16:30.339Z,1.36
2023-03-02T04:18:58.084Z,1.37
2023-03-02T04:21:24.876Z,1.32
2023-03-02T04:23:51.507Z,1.29
2023-03-02T04:26:18.130Z,1.29
2023-03-02T04:28:44.910Z,1.27
2023-03-02T04:31:11.609Z,1.31
2023-03-02T04:33:39.206Z,1.30
2023-03-02T04:36:06.083Z,1.27
2023-03-02T04:38:32.714Z,1.25
2023-03-02T04:40:59.342Z,1.27
2023-03-02T04:43:26.167Z,1.29
2023-03-02T04:45:54.095Z,1.29
2023-03-02T04:48:22.183Z,1.33
2023-03-02T04:50:48.822Z,1.32
2023-03-02T04:53:16.779Z,1.32
2023-03-02T04:55:43.637Z,1.31
2023-03-02T04:58:10.437Z,1.32
2023-03-02T05:00:37.125Z,1.35
2023-03-02T05:03:04.679Z,1.33
2023-03-02T05:05:31.494Z,1.34
2023-03-02T05:07:59.451Z,1.33
2023-03-02T05:10:27.661Z,1.33
2023-03-02T05:12:55.007Z,1.30
2023-03-02T05:15:23.249Z,1.35
2023-03-02T05:17:49.959Z,1.31
2023-03-02T05:20:17.680Z,1.30
2023-03-02T05:22:44.379Z,1.32
2023-03-02T05:25:13.214Z,1.30
2023-03-02T05:27:39.884Z,1.27
2023-03-02T05:30:07.315Z,1.24
2023-03-02T05:32:34.049Z,1.20
2023-03-02T05:35:00.788Z,1.16
2023-03-02T05:37:27.562Z,1.15
2023-03-02T05:39:54.242Z,1.13
2023-03-02T05:42:20.958Z,1.10
2023-03-02T05:44:47.598Z,1.11
2023-03-02T05:47:14.306Z,1.09
2023-03-02T05:49:41.076Z,1.11
2023-03-02T05:52:07.705Z,1.09
2023-03-02T05:54:34.322Z,1.07
2023-03-02T05:57:00.922Z,1.09
2023-03-02T05:59:27.502Z,1.08
2023-03-02T06:01:58.742Z,1.11
2023-03-02T06:04:25.959Z,1.07
2023-03-02T06:06:52.756Z,1.11
2023-03-02T06:09:19.488Z,1.07
2023-03-02T06:11:46.110Z,1.09
2023-03-02T06:14:12.717Z,1.11
2023-03-02T06:16:40.077Z,1.14
2023-03-02T06:19:06.797Z,1.16
2023-03-02T06:21:33.429Z,1.18
2023-03-02T06:24:00.035Z,1.19
2023-03-02T06:26:26.695Z,1.20
2023-03-02T06:28:54.059Z,1.26
2023-03-02T06:31:21.894Z,1.24
2023-03-02T06:33:48.764Z,1.25
2023-03-02T06:36:17.081Z,1.29
2023-03-02T06:38:43.934Z,1.33
2023-03-02T06:41:10.574Z,1.36
2023-03-02T06:43:40.422Z,1.35
2023-03-02T06:46:07.193Z,1.39
2023-03-02T06:48:33.825Z,1.40
2023-03-02T06:51:00.414Z,1.43
2023-03-02T06:53:27.542Z,1.46
2023-03-02T06:55:54.136Z,1.47
2023-03-02T06:58:20.858Z,1.48
2023-03-02T07:00:47.666Z,1.55
2023-03-02T07:03:14.319Z,1.55
2023-03-02T07:05:41.003Z,1.56
2023-03-02T07:08:07.809Z,1.60
2023-03-02T07:10:34.500Z,1.61
2023-03-02T07:13:01.172Z,1.65
2023-03-02T07:15:27.794Z,1.67
2023-03-02T07:17:54.428Z,1.72
2023-03-02T07:20:21.195Z,1.74
2023-03-02T07:22:47.838Z,1.78
2023-03-02T07:25:14.475Z,1.88
2023-03-02T07:27:41.637Z,1.91
2023-03-02T07:30:09.237Z,2.02
2023-03-02T07:32:35.929Z,2.04
2023-03-02T07:35:02.905Z,2.09
2023-03-02T07:37:30.108Z,2.19
2023-03-02T07:39:58.373Z,2.23
2023-03-02T07:42:25.799Z,2.27
2023-03-02T07:44:54.328Z,2.27
2023-03-02T07:47:21.538Z,2.36
2023-03-02T07:49:48.154Z,2.47
2023-03-02T07:52:15.270Z,2.55
2023-03-02T07:54:45.158Z,2.57
2023-03-02T07:57:13.832Z,2.62
2023-03-02T07:59:40.512Z,2.66
2023-03-02T08:02:07.294Z,2.71
2023-03-02T08:04:35.000Z,2.84
2023-03-02T08:07:01.596Z,2.93
2023-03-02T08:09:28.391Z,2.97
2023-03-02T08:11:55.067Z,3.03
2023-03-02T08:14:21.656Z,3.11
2023-03-02T08:16:48.246Z,3.18
2023-03-02T08:19:14.858Z,3.30
2023-03-02T08:21:41.562Z,3.43
2023-03-02T08:24:08.480Z,3.45
2023-03-02T08:26:35.063Z,3.54
2023-03-02T08:29:01.881Z,3.62
2023-03-02T08:31:28.557Z,3.67
2023-03-02T08:33:55.198Z,3.81
2023-03-02T08:36:22.095Z,3.83
2023-03-02T08:38:49.217Z,3.89
2023-03-02T08:41:19.912Z,3.96
2023-03-02T08:43:47.575Z,4.09
2023-03-02T08:46:17.858Z,4.12
2023-03-02T08:48:44.756Z,4.27
2023-03-02T08:51:15.399Z,4.30
2023-03-02T08:53:44.743Z,4.44
2023-03-02T08:56:16.576Z,4.55
2023-03-02T08:58:43.294Z,4.78
2023-03-02T09:01:18.644Z,4.89
2023-03-02T09:03:45.740Z,5.01
2023-03-02T09:06:12.904Z,4.99
2023-03-02T09:08:40.417Z,5.04
2023-03-02T09:11:07.619Z,5.25
2023-03-02T09:13:35.065Z,5.40
2023-03-02T09:16:02.193Z,5.43
2023-03-02T09:18:30.714Z,5.49
2023-03-02T09:20:58.098Z,5.66
2023-03-02T09:23:26.344Z,5.76
2023-03-02T09:25:53.402Z,5.85
2023-03-02T09:28:21.762Z,5.94
2023-03-02T09:30:51.422Z,6.11
2023-03-02T09:33:19.028Z,6.19
2023-03-02T09:35:47.515Z,6.26
2023-03-02T09:38:17.079Z,6.35
2023-03-02T09:41:06.366Z,6.45
2023-03-02T09:43:53.825Z,6.57
2023-03-02T09:46:30.368Z,6.68
2023-03-02T09:49:13.121Z,6.92
2023-03-02T09:51:40.775Z,7.24
2023-03-02T09:54:19.605Z,7.34
2023-03-02T09:56:50.629Z,7.37
2023-03-02T09:59:24.466Z,7.42
2023-03-02T10:02:04.144Z,7.56
2023-03-02T10:04:41.442Z,7.73
2023-03-02T10:07:17.877Z,7.82
2023-03-02T10:09:44.379Z,8.00
2023-03-02T10:12:35.890Z,7.96
2023-03-02T10:15:12.703Z,8.08
2023-03-02T10:17:40.695Z,8.17
2023-03-02T10:20:34.087Z,8.32
2023-03-02T10:23:23.192Z,8.49
2023-03-02T10:25:58.548Z,8.54
2023-03-02T10:28:32.700Z,8.64
2023-03-02T10:31:18.454Z,8.77
2023-03-02T10:33:45.196Z,8.77
2023-03-02T10:36:27.073Z,8.97
2023-03-02T10:38:55.279Z,8.91
2023-03-02T10:41:35.349Z,9.09
2023-03-02T10:44:11.184Z,9.20
2023-03-02T10:46:41.235Z,9.43
2023-03-02T10:49:24.909Z,9.57
2023-03-02T10:52:15.166Z,9.64
2023-03-02T10:54:42.617Z,9.68
2023-03-02T10:57:39.798Z,9.78
2023-03-02T11:00:24.383Z,9.91
2023-03-02T11:02:57.723Z,9.96
2023-03-02T11:05:32.382Z,10.09
2023-03-02T11:08:02.406Z,9.97
2023-03-02T11:10:40.762Z,10.13
2023-03-02T11:13:17.130Z,10.05
2023-03-02T11:15:48.003Z,9.95
2023-03-02T11:18:15.736Z,10.00
2023-03-02T11:20:45.810Z,10.11
2023-03-02T11:23:33.216Z,10.13
2023-03-02T11:26:12.628Z,10.31
2023-03-02T11:28:50.765Z,10.30
2023-03-02T11:31:35.413Z,10.44
2023-03-02T11:34:18.023Z,10.55
2023-03-02T11:36:56.193Z,10.67
2023-03-02T11:39:29.050Z,10.53
2023-03-02T11:41:55.673Z,10.44
2023-03-02T11:44:24.770Z,10.35
2023-03-02T11:47:00.998Z,10.48
2023-03-02T11:49:38.058Z,10.62
2023-03-02T11:52:04.888Z,10.65
2023-03-02T11:54:41.060Z,10.85
2023-03-02T11:57:34.526Z,10.90
2023-03-02T12:00:03.340Z,11.21
2023-03-02T12:02:29.956Z,11.38
2023-03-02T12:05:07.605Z,11.32
2023-03-02T12:07:34.394Z,11.33
2023-03-02T12:10:05.038Z,11.27
2023-03-02T12:12:33.831Z,11.13
2023-03-02T12:15:01.157Z,11.11
2023-03-02T12:17:27.818Z,11.21
2023-03-02T12:20:09.087Z,11.11
2023-03-02T12:22:37.544Z,11.15
2023-03-02T12:25:21.848Z,11.12
2023-03-02T12:27:52.002Z,11.21
2023-03-02T12:30:23.621Z,11.25
2023-03-02T12:33:18.392Z,11.49
2023-03-02T12:35:47.205Z,11.52
2023-03-02T12:38:32.472Z,11.61
2023-03-02T12:41:17.517Z,11.58
2023-03-02T12:43:56.435Z,11.60
2023-03-02T12:46:33.150Z,11.71
2023-03-02T12:49:03.510Z,11.99
2023-03-02T12:51:43.950Z,11.95
2023-03-02T12:54:17.280Z,12.10
2023-03-02T12:56:44.980Z,11.87
2023-03-02T12:59:22.254Z,11.96
2023-03-02T13:01:49.142Z,11.98
2023-03-02T13:04:26.241Z,11.95
2023-03-02T13:06:54.255Z,12.11
2023-03-02T13:09:22.540Z,12.21
2023-03-02T13:11:52.077Z,12.37
2023-03-02T13:14:28.242Z,12.17
2023-03-02T13:16:59.455Z,11.91
2023-03-02T13:19:27.515Z,12.17
2023-03-02T13:21:54.356Z,12.08
2023-03-02T13:24:51.558Z,11.91
2023-03-02T13:27:21.310Z,11.81
2023-03-02T13:29:49.025Z,11.77
2023-03-02T13:32:27.100Z,11.73
2023-03-02T13:34:58.133Z,12.13
2023-03-02T13:37:43.915Z,12.00
2023-03-02T13:40:27.064Z,12.15
2023-03-02T13:42:54.645Z,12.11
2023-03-02T13:45:31.278Z,12.11
2023-03-02T13:48:00.555Z,12.05
2023-03-02T13:50:31.594Z,12.34
2023-03-02T13:53:02.498Z,12.48
2023-03-02T13:55:29.539Z,12.57
2023-03-02T13:57:56.458Z,12.56
2023-03-02T14:00:31.217Z,12.62
2023-03-02T14:02:57.811Z,12.73
2023-03-02T14:05:33.019Z,12.72
2023-03-02T14:08:00.493Z,12.68
2023-03-02T14:10:27.368Z,12.73
2023-03-02T14:13:03.516Z,12.57
2023-03-02T14:15:30.266Z,12.52
2023-03-02T14:17:57.085Z,12.65
2023-03-02T14:20:23.905Z,12.51
2023-03-02T14:22:50.808Z,12.66
2023-03-02T14:25:17.831Z,12.65
2023-03-02T14:27:47.193Z,12.67
2023-03-02T14:30:15.339Z,12.65
2023-03-02T14:32:41.965Z,12.61
2023-03-02T14:35:11.743Z,12.49
2023-03-02T14:37:43.051Z,12.47
2023-03-02T14:40:21.833Z,12.52
2023-03-02T14:42:48.691Z,12.43
2023-03-02T14:45:16.493Z,12.37
2023-03-02T14:47:43.073Z,12.59
2023-03-02T14:50:11.697Z,12.68
2023-03-02T14:52:45.709Z,12.74
2023-03-02T14:55:26.682Z,12.72
2023-03-02T14:57:57.604Z,12.67
2023-03-02T15:00:24.955Z,12.63
2023-03-02T15:02:51.914Z,12.58
2023-03-02T15:05:19.064Z,12.57
2023-03-02T15:07:46.704Z,12.62
2023-03-02T15:10:16.770Z,12.66
2023-03-02T15:12:43.497Z,12.63
2023-03-02T15:15:10.561Z,12.78
2023-03-02T15:17:37.195Z,12.73
2023-03-02T15:20:04.623Z,12.76
2023-03-02T15:22:31.233Z,12.73
2023-03-02T15:24:57.869Z,12.62
2023-03-02T15:27:24.841Z,12.61
2023-03-02T15:29:51.453Z,12.56
2023-03-02T15:32:18.156Z,12.55
2023-03-02T15:34:44.876Z,12.46
2023-03-02T15:37:11.928Z,12.30
2023-03-02T15:39:38.991Z,12.21
2023-03-02T15:42:06.111Z,12.13
2023-03-02T15:44:33.518Z,11.93
2023-03-02T15:47:01.519Z,11.88
2023-03-02T15:49:29.433Z,11.69
2023-03-02T15:51:57.699Z,11.61
2023-03-02T15:54:25.680Z,11.55
2023-03-02T15:56:53.365Z,11.42
2023-03-02T15:59:28.271Z,11.22
2023-03-02T16:01:59.610Z,11.18
2023-03-02T16:04:27.633Z,11.11
2023-03-02T16:06:54.995Z,11.08
2023-03-02T16:09:22.226Z,10.97
2023-03-02T16:11:49.937Z,10.82
2023-03-02T16:14:16.940Z,10.78
2023-03-02T16:16:45.374Z,10.67
2023-03-02T16:19:14.541Z,10.64
2023-03-02T16:21:41.819Z,10.57
2023-03-02T16:24:09.378Z,10.48
2023-03-02T16:26:38.108Z,10.36
2023-03-02T16:29:07.984Z,10.24
2023-03-02T16:31:37.761Z,10.24
2023-03-02T16:34:08.828Z,10.11
2023-03-02T16:36:37.879Z,10.07
2023-03-02T16:39:05.601Z,10.07
2023-03-02T16:41:32.426Z,10.00
2023-03-02T16:44:00.453Z,9.99
2023-03-02T16:46:31.198Z,9.89
2023-03-02T16:48:58.894Z,9.85
2023-03-02T16:51:26.076Z,9.77
2023-03-02T16:53:53.124Z,9.68
2023-03-02T16:56:20.022Z,9.60
2023-03-02T16:58:46.803Z,9.56
2023-03-02T17:01:20.341Z,9.43
2023-03-02T17:03:49.478Z,9.30
2023-03-02T17:06:18.529Z,9.30
2023-03-02T17:08:45.256Z,9.26
2023-03-02T17:11:12.020Z,9.15
2023-03-02T17:13:38.926Z,9.02
2023-03-02T17:16:06.130Z,8.93
2023-03-02T17:18:33.498Z,8.87
2023-03-02T17:21:00.525Z,8.78
2023-03-02T17:23:27.472Z,8.68
2023-03-02T17:25:54.786Z,8.72
2023-03-02T17:28:21.598Z,8.71
2023-03-02T17:30:48.271Z,8.73
2023-03-02T17:33:15.033Z,8.70
2023-03-02T17:35:42.591Z,8.66
2023-03-02T17:38:09.247Z,8.62
2023-03-02T17:40:35.878Z,8.61
2023-03-02T17:43:02.534Z,8.50
2023-03-02T17:45:29.468Z,8.44
2023-03-02T17:47:59.222Z,8.38
2023-03-02T17:50:26.179Z,8.35
2023-03-02T17:52:54.175Z,8.31
2023-03-02T17:55:21.060Z,8.23
2023-03-02T17:57:47.740Z,8.21
2023-03-02T18:00:18.724Z,8.19
2023-03-02T18:02:45.417Z,8.08
2023-03-02T18:05:12.844Z,8.03
2023-03-02T18:07:39.943Z,7.99
2023-03-02T18:10:07.249Z,7.93
2023-03-02T18:12:34.990Z,7.92
2023-03-02T18:15:02.138Z,7.85
2023-03-02T18:17:29.009Z,7.81
2023-03-02T18:19:55.625Z,7.76
2023-03-02T18:22:22.377Z,7.70
2023-03-02T18:24:50.545Z,7.60
2023-03-02T18:27:17.723Z,7.54
2023-03-02T18:29:44.421Z,7.47
2023-03-02T18:32:11.645Z,7.42
2023-03-02T18:34:38.479Z,7.32
2023-03-02T18:37:05.155Z,7.32
2023-03-02T18:39:31.981Z,7.30
2023-03-02T18:41:58.731Z,7.29
2023-03-02T18:44:28.060Z,7.27
2023-03-02T18:46:58.957Z,7.23
2023-03-02T18:49:25.898Z,7.12
2023-03-02T18:51:53.051Z,7.04
2023-03-02T18:54:19.747Z,6.96
2023-03-02T18:56:46.468Z,6.92
2023-03-02T18:59:13.990Z,6.91
2023-03-02T19:01:40.721Z,6.86
2023-03-02T19:04:07.491Z,6.85
2023-03-02T19:06:34.308Z,6.82
2023-03-02T19:09:01.225Z,6.83
2023-03-02T19:11:27.930Z,6.69
2023-03-02T19:13:54.609Z,6.64
2023-03-02T19:16:21.258Z,6.51
2023-03-02T19:18:48.709Z,6.40
2023-03-02T19:21:16.728Z,6.25
2023-03-02T19:23:45.558Z,6.17
2023-03-02T19:26:13.136Z,6.08
2023-03-02T19:28:39.976Z,6.06
2023-03-02T19:31:09.385Z,6.04
2023-03-02T19:33:37.379Z,6.03
2023-03-02T19:36:05.027Z,5.96
2023-03-02T19:38:31.664Z,5.96
2023-03-02T19:41:00.398Z,5.97
2023-03-02T19:43:27.740Z,6.01
2023-03-02T19:45:54.548Z,6.03
2023-03-02T19:48:21.387Z,6.02
2023-03-02T19:50:48.324Z,5.99
2023-03-02T19:53:17.038Z,5.96
2023-03-02T19:55:44.491Z,5.96
2023-03-02T19:58:16.988Z,5.95
2023-03-02T20:00:47.347Z,5.95
2023-03-02T20:03:14.056Z,5.95
2023-03-02T20:05:40.810Z,5.91
2023-03-02T20:08:08.308Z,5.87
2023-03-02T20:10:40.196Z,5.82
2023-03-02T20:13:08.333Z,5.80
2023-03-02T20:15:38.693Z,5.77
2023-03-02T20:18:07.976Z,5.80
2023-03-02T20:20:34.975Z,5.83
2023-03-02T20:23:16.839Z,5.72
2023-03-02T20:25:44.519Z,5.70
2023-03-02T20:28:14.382Z,5.71
2023-03-02T20:30:51.482Z,5.54
2023-03-02T20:33:19.389Z,5.47
2023-03-02T20:35:47.320Z,5.40
2023-03-02T20:38:19.706Z,5.39
2023-03-02T20:40:46.494Z,5.31
2023-03-02T20:43:13.295Z,5.25
2023-03-02T20:45:40.893Z,5.20
2023-03-02T20:48:08.147Z,5.14
2023-03-02T20:50:37.353Z,5.12
2023-03-02T20:53:05.829Z,5.07
2023-03-02T20:55:33.099Z,5.12
2023-03-02T20:58:01.212Z,5.08
2023-03-02T21:00:29.670Z,5.07
2023-03-02T21:02:57.804Z,5.03
2023-03-02T21:05:25.228Z,4.98
2023-03-02T21:07:52.314Z,4.92
2023-03-02T21:10:24.763Z,4.92
2023-03-02T21:12:51.442Z,4.88
2023-03-02T21:15:20.286Z,4.83
2023-03-02T21:17:47.573Z,4.79
2023-03-02T21:20:16.545Z,4.79
2023-03-02T21:22:46.428Z,4.78
2023-03-02T21:25:13.183Z,4.72
2023-03-02T21:27:41.175Z,4.70
2023-03-02T21:30:14.689Z,4.62
2023-03-02T21:32:45.642Z,4.55
2023-03-02T21:35:14.915Z,4.50
2023-03-02T21:37:42.215Z,4.18
2023-03-02T21:40:14.588Z,4.09
2023-03-02T21:42:42.445Z,3.93
2023-03-02T21:45:09.722Z,4.04
2023-03-02T21:47:36.806Z,4.01
2023-03-02T21:50:05.518Z,3.99
2023-03-02T21:52:32.173Z,3.92
2023-03-02T21:54:58.788Z,3.85
2023-03-02T21:57:25.408Z,3.72
2023-03-02T21:59:54.724Z,3.68
2023-03-02T22:02:21.296Z,3.54
2023-03-02T22:04:47.898Z,3.29
2023-03-02T22:07:14.513Z,3.41
2023-03-02T22:09:41.202Z,3.28
2023-03-02T22:12:13.697Z,3.37
2023-03-02T22:14:40.340Z,3.37
2023-03-02T22:17:19.576Z,3.39
2023-03-02T22:19:47.216Z,3.23
2023-03-02T22:22:27.628Z,3.13
2023-03-02T22:24:54.655Z,3.17
2023-03-02T22:27:30.474Z,3.12
2023-03-02T22:29:59.365Z,3.03
2023-03-02T22:32:30.185Z,3.05
2023-03-02T22:34:59.221Z,2.76
2023-03-02T22:37:28.674Z,2.81
2023-03-02T22:39:58.037Z,2.68
2023-03-02T22:42:29.345Z,2.74
2023-03-02T22:45:02.428Z,2.66
2023-03-02T22:47:32.271Z,2.64
2023-03-02T22:50:12.194Z,2.58
2023-03-02T22:52:41.757Z,2.46
2023-03-02T22:55:39.009Z,2.48
2023-03-02T22:58:36.213Z,2.22
2023-03-02T23:01:03.014Z,2.19
2023-03-02T23:03:39.829Z,2.27
2023-03-02T23:06:37.037Z,2.19
2023-03-02T23:09:06.426Z,2.25
2023-03-02T23:11:38.206Z,2.23
2023-03-02T23:14:28.188Z,2.23
2023-03-02T23:17:00.340Z,2.19
2023-03-02T23:19:28.934Z,2.12
2023-03-02T23:21:56.252Z,2.07
2023-03-02T23:24:22.946Z,1.98
2023-03-02T23:26:51.089Z,1.94
2023-03-02T23:29:18.712Z,1.87
2023-03-02T23:31:47.018Z,1.99
2023-03-02T23:34:14.049Z,1.94
2023-03-02T23:36:41.877Z,1.67
2023-03-02T23:39:09.517Z,1.67
2023-03-02T23:41:37.250Z,1.71
2023-03-02T23:44:04.900Z,1.66
2023-03-02T23:46:32.360Z,1.62
2023-03-02T23:48:58.990Z,1.60
2023-03-02T23:51:26.272Z,1.51
2023-03-02T23:53:54.072Z,1.32
2023-03-02T23:56:21.231Z,1.24
2023-03-02T23:58:48.151Z,1.29
